createdAt,value
2018-12-23T00:02:15.771Z,1.23
2018-12-23T00:04:41.848Z,1.40
2018-12-23T00:07:07.925Z,1.30
2018-12-23T00:09:34.223Z,1.40
2018-12-23T00:12:00.314Z,1.47
2018-12-23T00:14:26.361Z,1.13
2018-12-23T00:16:52.562Z,1.37
2018-12-23T00:19:18.641Z,1.33
2018-12-23T00:21:44.674Z,1.40
2018-12-23T00:24:10.879Z,0.97
2018-12-23T00:26:36.958Z,1.53
2018-12-23T00:29:02.990Z,1.00
2018-12-23T00:31:29.101Z,1.10
2018-12-23T00:33:55.145Z,1.10
2018-12-23T00:36:21.184Z,1.30
2018-12-23T00:38:47.492Z,1.30
2018-12-23T00:41:13.523Z,1.30
2018-12-23T00:43:39.593Z,0.90
2018-12-23T00:46:05.756Z,1.30
2018-12-23T00:48:38.728Z,1.00
2018-12-23T00:51:04.793Z,1.10
2018-12-23T00:53:30.975Z,1.50
2018-12-23T00:55:57.044Z,1.63
2018-12-23T00:58:23.134Z,1.13
2018-12-23T01:00:49.269Z,1.50
2018-12-23T01:03:15.277Z,1.40
2018-12-23T01:05:41.382Z,1.50
2018-12-23T01:08:07.657Z,1.50
2018-12-23T01:10:33.669Z,1.43
2018-12-23T01:12:59.809Z,1.33
2018-12-23T01:15:26.147Z,1.30
2018-12-23T01:17:52.244Z,1.70
2018-12-23T01:20:18.299Z,1.50
2018-12-23T01:22:44.603Z,1.57
2018-12-23T01:25:10.633Z,1.50
2018-12-23T01:27:36.655Z,1.73
2018-12-23T01:30:04.180Z,1.40
2018-12-23T01:32:30.203Z,1.43
2018-12-23T01:34:56.267Z,1.47
2018-12-23T01:37:22.481Z,1.43
2018-12-23T01:39:48.525Z,1.90
2018-12-23T01:42:14.619Z,1.67
2018-12-23T01:44:40.834Z,1.90
2018-12-23T01:47:06.898Z,1.67
2018-12-23T01:49:32.911Z,1.90
2018-12-23T01:51:59.224Z,1.97
2018-12-23T01:54:25.311Z,1.90
2018-12-23T01:56:51.494Z,2.13
2018-12-23T01:59:17.726Z,1.93
2018-12-23T02:01:43.749Z,1.87
2018-12-23T02:04:09.832Z,2.40
2018-12-23T02:06:36.054Z,2.00
2018-12-23T02:09:03.767Z,2.10
2018-12-23T02:11:29.824Z,1.93
2018-12-23T02:17:23.490Z,2.00
2018-12-23T02:19:49.804Z,2.30
2018-12-23T02:22:15.879Z,2.00
2018-12-23T02:24:42.147Z,2.50
2018-12-23T02:27:08.594Z,1.77
2018-12-23T02:29:34.605Z,1.87
2018-12-23T02:32:00.673Z,1.93
2018-12-23T02:34:27.045Z,2.53
2018-12-23T02:36:53.116Z,1.90
2018-12-23T02:39:19.296Z,2.20
2018-12-23T02:41:45.665Z,2.17
2018-12-23T02:44:11.715Z,1.70
2018-12-23T02:46:37.751Z,2.07
2018-12-23T02:49:04.158Z,2.10
2018-12-23T02:51:30.193Z,2.13
2018-12-23T02:53:56.229Z,2.00
2018-12-23T02:56:22.437Z,2.00
2018-12-23T02:58:48.473Z,2.40
2018-12-23T03:01:14.517Z,2.13
2018-12-23T03:03:40.750Z,2.27
2018-12-23T03:06:06.999Z,2.10
2018-12-23T03:08:33.047Z,2.47
2018-12-23T03:10:59.286Z,2.17
2018-12-23T03:13:25.413Z,2.27
2018-12-23T03:15:51.462Z,2.07
2018-12-23T03:18:17.764Z,2.00
2018-12-23T03:20:43.973Z,2.03
2018-12-23T03:23:09.985Z,2.20
2018-12-23T03:25:36.267Z,2.30
2018-12-23T03:28:02.639Z,2.20
2018-12-23T03:30:28.771Z,2.43
2018-12-23T03:32:55.056Z,2.27
2018-12-23T03:35:21.125Z,2.53
2018-12-23T03:37:47.149Z,2.17
2018-12-23T03:40:13.287Z,2.20
2018-12-23T03:42:39.477Z,2.63
2018-12-23T03:45:05.703Z,2.57
2018-12-23T03:47:32.087Z,2.37
2018-12-23T03:49:58.148Z,2.40
2018-12-23T03:52:24.207Z,2.60
2018-12-23T03:54:50.585Z,2.40
2018-12-23T03:57:16.759Z,2.37
2018-12-23T03:59:42.777Z,2.33
2018-12-23T04:02:08.890Z,2.87
2018-12-23T04:04:34.966Z,2.17
2018-12-23T04:07:01.159Z,2.30
2018-12-23T04:09:27.558Z,2.63
2018-12-23T04:11:53.596Z,2.70
2018-12-23T04:14:19.639Z,2.70
2018-12-23T04:16:45.834Z,2.57
2018-12-23T04:19:11.894Z,2.13
2018-12-23T04:21:38.145Z,2.57
2018-12-23T04:24:04.440Z,2.13
2018-12-23T04:26:30.493Z,2.33
2018-12-23T04:28:56.522Z,2.40
2018-12-23T04:31:22.864Z,2.50
2018-12-23T04:33:48.891Z,2.50
2018-12-23T04:36:14.939Z,2.03
2018-12-23T04:38:41.278Z,2.13
2018-12-23T04:41:07.426Z,2.20
2018-12-23T04:43:33.492Z,2.40
2018-12-23T04:45:59.860Z,3.07
2018-12-23T04:48:26.013Z,2.70
2018-12-23T04:50:52.099Z,2.93
2018-12-23T04:53:18.530Z,2.20
2018-12-23T04:55:44.706Z,2.67
2018-12-23T04:58:10.742Z,2.17
2018-12-23T05:00:37.005Z,2.70
2018-12-23T05:03:03.040Z,2.30
2018-12-23T05:05:29.194Z,2.60
2018-12-23T05:07:55.413Z,2.30
2018-12-23T05:10:21.472Z,2.30
2018-12-23T05:12:47.601Z,2.13
2018-12-23T05:15:13.860Z,2.77
2018-12-23T05:17:39.916Z,2.20
2018-12-23T05:20:05.971Z,2.20
2018-12-23T05:22:32.303Z,2.00
2018-12-23T05:24:58.352Z,2.37
2018-12-23T05:27:24.408Z,2.07
2018-12-23T05:29:50.600Z,2.00
2018-12-23T05:32:16.666Z,2.17
2018-12-23T05:34:42.719Z,1.77
2018-12-23T05:37:09.018Z,1.70
2018-12-23T05:39:35.066Z,2.13
2018-12-23T05:42:01.251Z,2.13
2018-12-23T05:44:27.608Z,2.37
2018-12-23T05:46:53.658Z,1.87
2018-12-23T05:49:19.718Z,2.00
2018-12-23T05:51:45.996Z,1.70
2018-12-23T05:54:12.029Z,1.73
2018-12-23T05:56:38.082Z,2.17
2018-12-23T05:59:04.409Z,1.80
2018-12-23T06:01:30.444Z,2.07
2018-12-23T06:03:56.480Z,1.53
2018-12-23T06:06:22.703Z,2.03
2018-12-23T06:08:48.756Z,1.83
2018-12-23T06:11:15.003Z,2.00
2018-12-23T06:13:41.277Z,1.80
2018-12-23T06:16:07.402Z,1.93
2018-12-23T06:18:33.456Z,1.87
2018-12-23T06:20:59.654Z,2.07
2018-12-23T06:23:25.784Z,2.00
2018-12-23T06:25:51.845Z,1.70
2018-12-23T06:28:18.170Z,1.87
2018-12-23T06:30:44.198Z,1.90
2018-12-23T06:33:10.241Z,2.03
2018-12-23T06:35:36.487Z,2.10
2018-12-23T06:38:02.793Z,2.60
2018-12-23T06:40:28.931Z,1.90
2018-12-23T06:42:55.223Z,1.83
2018-12-23T06:45:21.280Z,2.03
2018-12-23T06:47:47.434Z,2.03
2018-12-23T06:50:13.780Z,1.77
2018-12-23T06:52:39.931Z,1.90
2018-12-23T06:55:06.064Z,1.73
2018-12-23T06:57:32.296Z,1.90
2018-12-23T06:59:58.339Z,1.80
2018-12-23T07:02:24.412Z,2.00
2018-12-23T07:04:50.719Z,1.60
2018-12-23T07:07:18.788Z,1.90
2018-12-23T07:09:44.800Z,2.00
2018-12-23T07:12:10.985Z,2.10
2018-12-23T07:14:37.152Z,1.80
2018-12-23T07:17:03.303Z,1.63
2018-12-23T07:19:29.430Z,1.90
2018-12-23T07:21:55.478Z,1.80
2018-12-23T07:24:21.712Z,1.80
2018-12-23T07:26:48.066Z,1.70
2018-12-23T07:29:14.316Z,1.80
2018-12-23T07:31:40.463Z,1.73
2018-12-23T07:34:06.661Z,1.60
2018-12-23T07:36:32.727Z,2.00
2018-12-23T07:38:58.855Z,1.40
2018-12-23T07:41:25.120Z,2.17
2018-12-23T07:43:51.176Z,1.53
2018-12-23T07:46:17.300Z,1.80
2018-12-23T07:48:43.552Z,1.60
2018-12-23T07:51:09.607Z,1.80
2018-12-23T07:53:35.764Z,1.47
2018-12-23T07:56:02.047Z,1.60
2018-12-23T07:58:28.076Z,1.90
2018-12-23T08:00:54.249Z,1.83
2018-12-23T08:03:20.374Z,1.97
2018-12-23T08:05:46.630Z,2.10
2018-12-23T08:08:12.791Z,1.87
2018-12-23T08:10:39.064Z,2.00
2018-12-23T08:13:05.229Z,1.90
2018-12-23T08:15:31.278Z,2.00
2018-12-23T08:17:57.492Z,1.70
2018-12-23T08:20:23.552Z,1.50
2018-12-23T08:22:49.623Z,1.57
2018-12-23T08:25:15.982Z,1.63
2018-12-23T08:27:42.028Z,1.90
2018-12-23T08:30:08.190Z,1.83
2018-12-23T08:32:34.417Z,1.63
2018-12-23T08:35:00.434Z,1.70
2018-12-23T08:37:26.554Z,1.60
2018-12-23T08:39:52.891Z,1.90
2018-12-23T08:42:18.908Z,1.70
2018-12-23T08:44:44.971Z,1.70
2018-12-23T08:47:11.189Z,1.50
2018-12-23T08:49:37.331Z,1.80
2018-12-23T08:52:03.468Z,1.80
2018-12-23T08:54:29.694Z,1.60
2018-12-23T08:56:55.857Z,1.67
2018-12-23T08:59:21.872Z,1.73
2018-12-23T09:01:48.171Z,1.50
2018-12-23T09:04:14.262Z,1.40
2018-12-23T09:06:40.291Z,1.33
2018-12-23T09:09:06.639Z,1.30
2018-12-23T09:11:32.694Z,1.30
2018-12-23T09:13:58.747Z,1.50
2018-12-23T09:16:25.015Z,1.63
2018-12-23T09:18:51.070Z,1.50
2018-12-23T09:21:17.305Z,1.47
2018-12-23T09:23:43.605Z,1.43
2018-12-23T09:26:09.656Z,1.77
2018-12-23T09:28:35.674Z,1.50
2018-12-23T09:31:01.991Z,1.70
2018-12-23T09:33:28.246Z,1.27
2018-12-23T09:35:54.420Z,1.33
2018-12-23T09:38:20.718Z,1.60
2018-12-23T09:40:46.761Z,1.33
2018-12-23T09:43:14.833Z,1.50
2018-12-23T09:45:41.030Z,1.73
2018-12-23T09:48:07.252Z,1.30
2018-12-23T09:50:33.439Z,1.43
2018-12-23T09:52:59.590Z,1.80
2018-12-23T09:55:25.672Z,1.27
2018-12-23T09:57:51.705Z,1.47
2018-12-23T10:00:17.934Z,1.60
2018-12-23T10:02:43.989Z,1.40
2018-12-23T10:05:10.023Z,1.27
2018-12-23T10:07:36.255Z,1.37
2018-12-23T10:10:04.010Z,1.40
2018-12-23T10:12:30.067Z,1.70
2018-12-23T10:14:57.048Z,1.53
2018-12-23T10:17:23.232Z,1.30
2018-12-23T10:19:49.373Z,1.47
2018-12-23T10:22:15.699Z,1.53
2018-12-23T10:24:41.933Z,1.07
2018-12-23T10:27:08.060Z,1.50
2018-12-23T10:29:34.350Z,2.13
2018-12-23T10:32:00.526Z,1.70
2018-12-23T10:34:26.751Z,1.27
2018-12-23T10:36:52.968Z,1.60
2018-12-23T10:39:19.015Z,1.37
2018-12-23T10:41:45.050Z,1.90
2018-12-23T10:44:11.372Z,1.80
2018-12-23T10:46:37.550Z,1.50
2018-12-23T10:49:03.709Z,1.80
2018-12-23T10:51:30.022Z,1.90
2018-12-23T10:53:56.064Z,1.77
2018-12-23T10:56:22.266Z,1.80
2018-12-23T10:58:48.559Z,1.90
2018-12-23T11:01:14.991Z,1.67
2018-12-23T11:03:41.035Z,1.93
2018-12-23T11:06:07.338Z,1.77
2018-12-23T11:08:33.431Z,1.80
2018-12-23T11:10:59.457Z,1.83
2018-12-23T11:13:25.706Z,1.50
2018-12-23T11:15:51.745Z,1.73
2018-12-23T11:18:17.787Z,1.70
2018-12-23T11:20:43.999Z,1.87
2018-12-23T11:23:10.004Z,1.63
2018-12-23T11:25:36.155Z,1.37
2018-12-23T11:28:02.587Z,1.80
2018-12-23T11:30:28.771Z,1.80
2018-12-23T11:32:54.847Z,2.23
2018-12-23T11:35:20.992Z,1.77
2018-12-23T11:37:47.123Z,1.77
2018-12-23T11:40:13.315Z,2.40
2018-12-23T11:42:39.568Z,1.70
2018-12-23T11:45:05.813Z,1.47
2018-12-23T11:47:31.862Z,1.57
2018-12-23T11:49:58.234Z,1.80
2018-12-23T11:52:24.369Z,1.73
2018-12-23T11:54:50.389Z,1.57
2018-12-23T11:57:16.661Z,1.60
2018-12-23T11:59:42.778Z,1.30
2018-12-23T12:02:15.273Z,1.50
2018-12-23T12:04:37.097Z,1.47
2018-12-23T12:07:03.152Z,1.50
2018-12-23T12:09:29.203Z,1.60
2018-12-23T12:11:55.420Z,1.43
2018-12-23T12:14:21.579Z,1.50
2018-12-23T12:16:47.737Z,1.40
2018-12-23T12:19:13.933Z,1.30
2018-12-23T12:21:40.074Z,1.40
2018-12-23T12:24:06.130Z,1.53
2018-12-23T12:26:32.427Z,1.40
2018-12-23T12:28:58.549Z,1.20
2018-12-23T12:31:24.664Z,1.53
2018-12-23T12:33:50.850Z,1.20
2018-12-23T12:36:16.906Z,1.67
2018-12-23T12:38:43.056Z,1.50
2018-12-23T12:41:09.281Z,1.50
2018-12-23T12:43:35.429Z,1.47
2018-12-23T12:46:01.505Z,1.17
2018-12-23T12:48:27.870Z,1.60
2018-12-23T12:50:53.912Z,1.43
2018-12-23T12:53:20.216Z,1.40
2018-12-23T12:55:46.506Z,1.47
2018-12-23T12:58:12.580Z,1.50
2018-12-23T13:00:38.661Z,1.73
2018-12-23T13:03:04.948Z,1.57
2018-12-23T13:05:31.000Z,1.50
2018-12-23T13:07:57.169Z,1.43
2018-12-23T13:10:23.477Z,1.80
2018-12-23T13:12:49.569Z,1.67
2018-12-23T13:15:15.618Z,1.43
2018-12-23T13:17:41.824Z,1.93
2018-12-23T13:20:07.893Z,1.67
2018-12-23T13:22:34.066Z,1.90
2018-12-23T13:25:00.444Z,1.67
2018-12-23T13:27:26.485Z,1.40
2018-12-23T13:29:52.553Z,1.87
2018-12-23T13:32:18.701Z,1.47
2018-12-23T13:34:44.857Z,1.33
2018-12-23T13:37:10.911Z,1.57
2018-12-23T13:39:37.312Z,1.73
2018-12-23T13:42:07.169Z,2.40
2018-12-23T13:44:59.968Z,2.23
2018-12-23T13:47:38.971Z,1.97
2018-12-23T13:50:25.412Z,1.60
2018-12-23T13:53:01.262Z,1.60
2018-12-23T13:55:33.970Z,1.87
2018-12-23T13:58:23.388Z,1.90
2018-12-23T14:00:59.231Z,1.80
2018-12-23T14:03:44.225Z,1.70
2018-12-23T14:06:22.949Z,1.67
2018-12-23T14:08:58.697Z,1.53
2018-12-23T14:11:34.604Z,2.17
2018-12-23T14:14:00.676Z,1.73
2018-12-23T14:16:26.731Z,1.60
2018-12-23T14:18:52.944Z,1.90
2018-12-23T14:21:19.003Z,2.03
2018-12-23T14:23:45.027Z,1.73
2018-12-23T14:26:11.373Z,1.70
2018-12-23T14:28:37.502Z,1.63
2018-12-23T14:31:03.675Z,2.00
2018-12-23T14:33:29.890Z,1.40
2018-12-23T14:35:55.930Z,2.03
2018-12-23T14:38:21.997Z,1.90
2018-12-23T14:40:48.216Z,2.07
2018-12-23T14:43:14.304Z,2.23
2018-12-23T14:45:40.367Z,2.13
2018-12-23T14:48:06.838Z,2.30
2018-12-23T14:50:32.881Z,2.23
2018-12-23T14:52:58.984Z,2.10
2018-12-23T14:55:25.280Z,2.10
2018-12-23T14:57:51.323Z,2.00
2018-12-23T15:00:17.465Z,2.37
2018-12-23T15:02:43.675Z,1.90
2018-12-23T15:05:09.753Z,2.50
2018-12-23T15:07:35.796Z,2.03
2018-12-23T15:10:02.290Z,2.10
2018-12-23T15:12:28.326Z,2.00
2018-12-23T15:14:54.355Z,2.60
2018-12-23T15:17:20.775Z,2.27
2018-12-23T15:19:46.791Z,2.40
2018-12-23T15:22:12.848Z,2.60
2018-12-23T15:24:39.018Z,2.57
2018-12-23T15:27:05.102Z,2.13
2018-12-23T15:29:31.145Z,2.43
2018-12-23T15:31:57.552Z,2.23
2018-12-23T15:34:23.691Z,2.70
2018-12-23T15:36:49.822Z,2.70
2018-12-23T15:39:16.184Z,2.47
2018-12-23T15:41:42.287Z,2.40
2018-12-23T15:44:08.609Z,2.50
2018-12-23T15:46:34.732Z,2.83
2018-12-23T15:49:00.782Z,2.43
2018-12-23T15:51:27.050Z,2.00
2018-12-23T15:53:53.270Z,2.67
2018-12-23T15:56:19.332Z,2.83
2018-12-23T15:58:45.352Z,2.27
2018-12-23T16:01:11.688Z,2.70
2018-12-23T16:03:37.716Z,2.67
2018-12-23T16:06:03.848Z,2.47
2018-12-23T16:08:30.158Z,2.50
2018-12-23T16:10:56.189Z,3.10
2018-12-23T16:13:22.221Z,3.50
2018-12-23T16:15:48.433Z,2.60
2018-12-23T16:18:14.531Z,3.17
2018-12-23T16:20:40.575Z,2.97
2018-12-23T16:23:06.904Z,2.97
2018-12-23T16:25:33.054Z,3.30
2018-12-23T16:27:59.195Z,4.73
2018-12-23T16:30:25.562Z,5.20
2018-12-23T16:32:51.684Z,8.17
2018-12-23T16:35:17.710Z,5.23
2018-12-23T16:37:44.004Z,5.47
2018-12-23T16:40:10.456Z,4.30
2018-12-23T16:42:36.544Z,3.87
2018-12-23T16:45:04.181Z,4.33
2018-12-23T16:47:30.201Z,3.87
2018-12-23T16:49:56.281Z,3.67
2018-12-23T16:52:22.497Z,2.67
2018-12-23T16:54:48.515Z,2.93
2018-12-23T16:57:14.664Z,3.60
2018-12-23T16:59:40.894Z,2.53
2018-12-23T17:02:07.049Z,3.10
2018-12-23T17:04:33.056Z,3.20
2018-12-23T17:06:59.494Z,3.60
2018-12-23T17:09:25.533Z,3.30
2018-12-23T17:11:51.590Z,3.27
2018-12-23T17:14:17.801Z,3.03
2018-12-23T17:16:44.881Z,3.03
2018-12-23T17:19:10.944Z,2.77
2018-12-23T17:21:37.267Z,3.00
2018-12-23T17:24:03.423Z,3.23
2018-12-23T17:26:29.453Z,2.87
2018-12-23T17:28:55.546Z,3.17
2018-12-23T17:31:21.869Z,3.03
2018-12-23T17:33:47.908Z,3.13
2018-12-23T17:36:13.987Z,3.67
2018-12-23T17:38:40.382Z,3.73
2018-12-23T17:41:06.406Z,3.90
2018-12-23T17:43:32.438Z,4.63
2018-12-23T17:45:58.742Z,4.60
2018-12-23T17:48:24.819Z,4.00
2018-12-23T17:50:50.947Z,4.13
2018-12-23T17:53:17.156Z,3.23
2018-12-23T17:55:43.252Z,3.03
2018-12-23T17:58:09.278Z,2.73
2018-12-23T18:00:35.897Z,3.00
2018-12-23T18:03:01.949Z,3.67
2018-12-23T18:05:28.073Z,3.40
2018-12-23T18:07:54.261Z,3.57
2018-12-23T18:10:24.959Z,3.33
2018-12-23T18:12:48.489Z,3.20
2018-12-23T18:15:14.663Z,3.27
2018-12-23T18:17:40.835Z,3.53
2018-12-23T18:20:07.068Z,3.27
2018-12-23T18:22:33.530Z,2.97
2018-12-23T18:24:59.568Z,3.57
2018-12-23T18:27:25.587Z,3.47
2018-12-23T18:29:51.911Z,3.30
2018-12-23T18:32:17.944Z,3.10
2018-12-23T18:34:43.966Z,3.10
2018-12-23T18:37:10.317Z,3.23
2018-12-23T18:39:36.325Z,2.53
2018-12-23T18:42:02.487Z,2.97
2018-12-23T18:44:28.790Z,3.00
2018-12-23T18:46:55.023Z,3.00
2018-12-23T18:49:21.037Z,2.77
2018-12-23T18:51:47.393Z,2.63
2018-12-23T18:54:13.516Z,2.63
2018-12-23T18:56:39.549Z,3.23
2018-12-23T18:59:05.804Z,3.83
2018-12-23T19:01:32.260Z,4.80
2018-12-23T19:03:58.289Z,5.23
2018-12-23T19:06:24.722Z,5.03
2018-12-23T19:08:59.433Z,4.47
2018-12-23T19:11:55.212Z,4.67
2018-12-23T19:14:59.803Z,5.33
2018-12-23T19:17:29.724Z,6.00
2018-12-23T19:20:11.744Z,6.87
2018-12-23T19:23:05.654Z,7.50
2018-12-23T19:25:59.917Z,10.93
2018-12-23T19:28:29.956Z,9.23
2018-12-23T19:31:08.984Z,8.53
2018-12-23T19:33:39.071Z,6.50
2018-12-23T19:36:11.938Z,6.57
2018-12-23T19:38:42.088Z,6.80
2018-12-23T19:41:28.806Z,6.03
2018-12-23T19:43:58.893Z,6.30
2018-12-23T19:46:46.682Z,5.03
2018-12-23T19:49:19.392Z,4.97
2018-12-23T19:52:12.936Z,4.60
2018-12-23T19:54:51.436Z,4.77
2018-12-23T19:57:24.528Z,4.77
2018-12-23T20:00:12.865Z,5.63
2018-12-23T20:03:00.616Z,6.37
2018-12-23T20:05:54.856Z,6.93
2018-12-23T20:08:57.767Z,5.60
2018-12-23T20:11:46.017Z,5.57
2018-12-23T20:14:33.925Z,4.93
2018-12-23T20:17:21.862Z,5.17
2018-12-23T20:19:54.564Z,6.63
2018-12-23T20:22:33.353Z,6.70
2018-12-23T20:25:11.971Z,6.23
2018-12-23T20:27:50.964Z,6.30
2018-12-23T20:30:23.595Z,6.80
2018-12-23T20:33:12.887Z,5.53
2018-12-23T20:36:10.873Z,5.73
2018-12-23T20:39:14.087Z,7.57
2018-12-23T20:42:06.737Z,4.97
2018-12-23T20:44:42.391Z,5.77
2018-12-23T20:47:18.010Z,5.23
2018-12-23T20:50:05.693Z,4.93
2018-12-23T20:52:50.002Z,4.10
2018-12-23T20:55:32.038Z,3.67
2018-12-23T20:58:10.604Z,4.53
2018-12-23T21:00:58.809Z,4.63
2018-12-23T21:03:28.635Z,4.37
2018-12-23T21:06:18.305Z,3.73
2018-12-23T21:08:54.107Z,4.17
2018-12-23T21:11:29.858Z,4.40
2018-12-23T21:14:17.820Z,4.33
2018-12-23T21:16:59.815Z,5.47
2018-12-23T21:19:50.518Z,5.03
2018-12-23T21:22:26.295Z,5.90
2018-12-23T21:25:17.379Z,5.67
2018-12-23T21:27:53.422Z,5.20
2018-12-23T21:30:42.799Z,4.27
2018-12-23T21:33:38.508Z,4.67
2018-12-23T21:36:11.095Z,4.47
2018-12-23T21:38:57.504Z,4.70
2018-12-23T21:41:33.231Z,4.50
2018-12-23T21:44:09.103Z,3.63
2018-12-23T21:47:10.611Z,3.73
2018-12-23T21:49:52.427Z,4.10
2018-12-23T21:52:56.861Z,3.90
2018-12-23T21:55:29.920Z,3.33
2018-12-23T21:58:05.799Z,3.20
2018-12-23T22:00:44.714Z,3.40
2018-12-23T22:03:31.979Z,2.10
2018-12-23T22:06:14.353Z,2.13
2018-12-23T22:08:59.057Z,1.87
2018-12-23T22:11:38.041Z,2.00
2018-12-23T22:14:04.082Z,1.63
2018-12-23T22:16:30.113Z,2.20
2018-12-23T22:18:56.352Z,1.97
2018-12-23T22:21:22.365Z,2.37
2018-12-23T22:23:48.425Z,1.70
2018-12-23T22:26:14.790Z,1.80
2018-12-23T22:28:40.894Z,1.60
2018-12-23T22:31:06.938Z,1.50
2018-12-23T22:33:33.180Z,1.90
2018-12-23T22:35:59.223Z,1.80
2018-12-23T22:38:25.247Z,1.63
2018-12-23T22:40:51.671Z,1.63
2018-12-23T22:43:17.800Z,1.73
2018-12-23T22:45:43.844Z,1.70
2018-12-23T22:48:10.174Z,1.63
2018-12-23T22:50:36.216Z,2.03
2018-12-23T22:53:02.246Z,2.67
2018-12-23T22:55:28.562Z,2.77
2018-12-23T22:57:54.759Z,2.53
2018-12-23T23:00:22.900Z,2.83
2018-12-23T23:02:49.175Z,3.40
2018-12-23T23:05:15.925Z,3.40
2018-12-23T23:07:41.951Z,3.47
2018-12-23T23:10:08.193Z,3.90
2018-12-23T23:12:34.209Z,3.33
2018-12-23T23:15:00.273Z,2.53
2018-12-23T23:17:26.563Z,2.63
2018-12-23T23:19:52.603Z,3.47
2018-12-23T23:22:18.745Z,2.60
2018-12-23T23:24:45.012Z,2.97
2018-12-23T23:27:11.179Z,3.60
2018-12-23T23:29:37.237Z,2.90
2018-12-23T23:32:03.608Z,3.40
2018-12-23T23:34:29.637Z,3.53
2018-12-23T23:36:55.686Z,3.33
2018-12-23T23:39:22.007Z,3.80
2018-12-23T23:41:48.187Z,3.43
2018-12-23T23:44:14.227Z,3.43
2018-12-23T23:46:40.487Z,3.60
2018-12-23T23:49:06.557Z,3.60
2018-12-23T23:51:32.621Z,3.13
2018-12-23T23:53:58.824Z,3.10
2018-12-23T23:56:25.004Z,3.07
2018-12-23T23:58:51.023Z,2.27
